Abeille Honfleur 19 — FV6095 — position and weather

sailwx.info

Track history (hours):
 
Tides and Currents Weather Stations Pressure Air Temp Water Temp Dewpoint Dewpoint Depression Visibility Wind Speed Wind Dir Waves Ship Positions

Abeille Honfleur 19

Last reported at 2016-Jun-26 18:33 UTC. Time now 2016-Jun-26 19:13 UTC.
Position N 47°16' W 002°12'.

Length 30 m.

Type: Tug. MMSI: 227005280.

Date/timePositionNaut miles runAvg speedWind from/ knotsBaromVisibWave heightAir tempDewpointWater temp
2016-Jun-26 18:33N 47°16' W 002°12'0 0.0
2016-Jun-26 14:33N 47°16' W 002°12'0 0.0
2016-Jun-26 13:33N 47°16' W 002°12'0 0.0
2016-Jun-26 09:33N 47°16' W 002°12'0 0.0
2016-Jun-26 08:33N 47°16' W 002°12'0 0.0
2016-Jun-26 07:21N 47°16' W 002°12'0 0.0
2016-Jun-26 06:33N 47°16' W 002°12'0 0.0
2016-Jun-26 05:33N 47°16' W 002°12'0 0.0
2016-Jun-26 04:33N 47°16' W 002°12'0 0.0
2016-Jun-26 03:33N 47°16' W 002°12'0 0.0
2016-Jun-26 01:27N 47°16' W 002°12'0 0.0
2016-Jun-26 00:33N 47°16' W 002°12'0 0.0
2016-Jun-25 23:33N 47°16' W 002°12'0 0.0
2016-Jun-25 22:30N 47°16' W 002°12'0 0.0
2016-Jun-25 21:33N 47°16' W 002°12'0 0.0
2016-Jun-25 20:33N 47°16' W 002°12'0 0.0
2016-Jun-25 19:33N 47°16' W 002°12'0 0.0
2016-Jun-25 18:27N 47°16' W 002°12'0 0.0
2016-Jun-25 17:15N 47°16' W 002°12'0 0.0
2016-Jun-25 16:06N 47°16' W 002°12'3 4.9
2016-Jun-25 15:33N 47°18' W 002°09'1 0.7
2016-Jun-25 14:32N 47°17' W 002°10'2 1.7
2016-Jun-25 13:31N 47°18' W 002°08'4 0.2
2016-Jun-24 20:25N 47°16' W 002°12'0 0.0
2016-Jun-24 14:19N 47°16' W 002°12'4 5.9
2016-Jun-24 13:33N 47°18' W 002°06'0 0.2
2016-Jun-24 12:32N 47°18' W 002°06'5 1.4
2016-Jun-24 09:13N 47°16' W 002°12'0 0.0
2016-Jun-24 07:31N 47°16' W 002°12'3 1.0
2016-Jun-24 04:33N 47°18' W 002°09'0 0.0
2016-Jun-24 03:33N 47°18' W 002°09'0 0.0
2016-Jun-24 02:33N 47°18' W 002°09'0 0.0
2016-Jun-24 01:33N 47°18' W 002°09'0 0.0
2016-Jun-24 00:33N 47°18' W 002°09'0 0.0
2016-Jun-23 23:33N 47°18' W 002°09'0 0.0
2016-Jun-23 22:33N 47°18' W 002°09'0 0.0
2016-Jun-23 21:33N 47°18' W 002°09'0 0.0
2016-Jun-23 20:30N 47°18' W 002°09'0 0.0
2016-Jun-23 19:33N 47°18' W 002°09'0 0.0
2016-Jun-23 18:33N 47°18' W 002°09'0 0.0
2016-Jun-23 17:27N 47°18' W 002°09'0 0.0
2016-Jun-23 16:33N 47°18' W 002°09'0 0.0
2016-Jun-23 15:33N 47°18' W 002°09'0 0.0
2016-Jun-23 14:33N 47°18' W 002°09'0 0.0
2016-Jun-23 13:33N 47°18' W 002°09'0 0.0
2016-Jun-23 12:33N 47°18' W 002°09'0 0.0
2016-Jun-23 11:30N 47°18' W 002°09'0 0.0
2016-Jun-23 10:30N 47°18' W 002°09'0 0.0
2016-Jun-23 09:27N 47°18' W 002°09'0 0.0
2016-Jun-23 08:33N 47°18' W 002°09'0 0.0
2016-Jun-23 07:33N 47°18' W 002°09'2 1.1
2016-Jun-23 05:31N 47°18' W 002°06'2 1.9
2016-Jun-23 04:34N 47°18' W 002°08'1 1.2
2016-Jun-23 03:32N 47°17' W 002°10'0 0.0
2016-Jun-23 02:32N 47°17' W 002°10'0 0.0
2016-Jun-23 01:32N 47°17' W 002°10'2 1.8
2016-Jun-23 00:31N 47°18' W 002°07'1 0.6
2016-Jun-22 23:33N 47°18' W 002°08'0 0.2
2016-Jun-22 22:33N 47°18' W 002°08'1 1.1
2016-Jun-22 21:28N 47°18' W 002°06'0 0.0
2016-Jun-22 20:28N 47°18' W 002°06'0 0.0
2016-Jun-22 19:31N 47°18' W 002°06'0 0.0
2016-Jun-22 18:28N 47°18' W 002°06'0 0.0
2016-Jun-22 17:31N 47°18' W 002°06'1 0.6
2016-Jun-22 16:33N 47°18' W 002°07'4 3.3
2016-Jun-22 15:20N 47°16' W 002°12'0 0.0
2016-Jun-22 14:20N 47°16' W 002°12'0 0.0
2016-Jun-22 08:20N 47°16' W 002°12'0 0.0
2016-Jun-22 07:32N 47°16' W 002°12'0 0.0
2016-Jun-22 06:29N 47°16' W 002°12'0 0.0
2016-Jun-22 05:23N 47°16' W 002°12'0 0.0
2016-Jun-22 03:29N 47°16' W 002°12'0 0.0
2016-Jun-22 02:26N 47°16' W 002°12'0 0.0
2016-Jun-22 01:29N 47°16' W 002°12'0 0.0
2016-Jun-22 00:32N 47°16' W 002°12'0 0.0
2016-Jun-21 20:32N 47°16' W 002°12'0 0.0
2016-Jun-21 19:32N 47°16' W 002°12'0 0.0
2016-Jun-21 17:14N 47°16' W 002°12'0 0.0
2016-Jun-21 16:29N 47°16' W 002°12'5 5.0
2016-Jun-21 15:30N 47°18' W 002°06'0 0.1
2016-Jun-21 14:31N 47°18' W 002°06'5 0.8
2016-Jun-21 08:29N 47°16' W 002°12'0 0.0
2016-Jun-21 07:17N 47°16' W 002°12'4 1.3
2016-Jun-21 04:33N 47°18' W 002°08'1 1.3
2016-Jun-21 03:33N 47°18' W 002°09'2 2.3
2016-Jun-21 02:31N 47°16' W 002°12'0 0.0
2016-Jun-21 01:31N 47°16' W 002°12'0 0.0
2016-Jun-21 00:31N 47°16' W 002°12'0 0.0
2016-Jun-20 23:22N 47°16' W 002°12'0 0.0
2016-Jun-20 22:31N 47°16' W 002°12'0 0.0
2016-Jun-20 21:19N 47°16' W 002°12'0 0.0
2016-Jun-20 20:25N 47°16' W 002°12'0 0.0
2016-Jun-20 19:25N 47°16' W 002°12'0 0.0
2016-Jun-20 18:31N 47°16' W 002°12'0 0.0
2016-Jun-20 17:19N 47°16' W 002°12'5 6.0
2016-Jun-20 16:33N 47°18' W 002°06'2 1.7
2016-Jun-20 15:33N 47°18' W 002°09'0 0.3
2016-Jun-20 14:32N 47°18' W 002°08'3 2.3
2016-Jun-20 13:07N 47°16' W 002°12'0 0.0
2016-Jun-20 12:31N 47°16' W 002°12'0 0.0
2016-Jun-20 07:04N 47°16' W 002°12'0 0.0
2016-Jun-20 06:31N 47°16' W 002°12'0 0.0
2016-Jun-20 05:25N 47°16' W 002°12'0 0.0
2016-Jun-20 04:19N 47°16' W 002°12'0 0.0
2016-Jun-20 03:10N 47°16' W 002°12'0 0.0
2016-Jun-20 02:16N 47°16' W 002°12'0 0.0
2016-Jun-20 01:31N 47°16' W 002°12'0 0.0
2016-Jun-20 00:28N 47°16' W 002°12'0 0.0
2016-Jun-19 23:04N 47°16' W 002°12'0 0.0
2016-Jun-19 22:25N 47°16' W 002°12'1 0.1
2016-Jun-19 15:33N 47°16' W 002°11'2 2.4
2016-Jun-19 14:34N 47°18' W 002°08'1 1.4
2016-Jun-19 13:33N 47°17' W 002°10'2 1.2
2016-Jun-19 12:05N 47°16' W 002°12'0 0.0
2016-Jun-19 11:32N 47°16' W 002°12'0 0.0
2016-Jun-19 07:23N 47°16' W 002°12'3 3.4
2016-Jun-19 06:32N 47°18' W 002°09'0 0.0
2016-Jun-19 05:32N 47°18' W 002°09'0 0.0
2016-Jun-19 04:32N 47°18' W 002°09'0 0.0
2016-Jun-19 03:32N 47°18' W 002°09'0 0.0
2016-Jun-19 02:32N 47°18' W 002°09'0 0.0
2016-Jun-19 01:32N 47°18' W 002°09'0 0.0
2016-Jun-19 00:32N 47°18' W 002°09'0 0.0
2016-Jun-18 23:32N 47°18' W 002°09'0 0.0
2016-Jun-18 22:32N 47°18' W 002°09'0 0.0
2016-Jun-18 21:32N 47°18' W 002°09'0 0.0
2016-Jun-18 20:29N 47°18' W 002°09'0 0.0
2016-Jun-18 19:32N 47°18' W 002°09'0 0.0
2016-Jun-18 18:32N 47°18' W 002°09'0 0.0
2016-Jun-18 17:32N 47°18' W 002°09'0 0.0
2016-Jun-18 16:32N 47°18' W 002°09'0 0.0
2016-Jun-18 15:32N 47°18' W 002°09'0 0.0
2016-Jun-18 14:32N 47°18' W 002°09'0 0.0
2016-Jun-18 13:32N 47°18' W 002°09'0 0.0
2016-Jun-18 12:29N 47°18' W 002°09'0 0.0
2016-Jun-18 11:32N 47°18' W 002°09'0 0.0
2016-Jun-18 10:32N 47°18' W 002°09'0 0.0
2016-Jun-18 09:32N 47°18' W 002°09'0 0.0
2016-Jun-18 08:32N 47°18' W 002°09'0 0.0
2016-Jun-18 07:33N 47°18' W 002°09'3 1.4
2016-Jun-18 05:33N 47°16' W 002°12'0 0.0
2016-Jun-18 04:27N 47°16' W 002°12'0 0.0
2016-Jun-18 03:33N 47°16' W 002°12'0 0.0
2016-Jun-18 02:27N 47°16' W 002°12'5 5.1
2016-Jun-18 01:31N 47°18' W 002°06'3 2.7
2016-Jun-18 00:33N 47°18' W 002°10'0 0.2
2016-Jun-17 23:32N 47°17' W 002°10'1 0.7
2016-Jun-17 22:33N 47°18' W 002°09'2 2.2
2016-Jun-17 21:32N 47°18' W 002°06'5 4.3
2016-Jun-17 20:26N 47°16' W 002°12'0 0.0
2016-Jun-17 19:29N 47°16' W 002°12'0 0.0
2016-Jun-17 18:32N 47°16' W 002°12'0 0.0
2016-Jun-17 17:29N 47°16' W 002°12'0 0.0
2016-Jun-17 16:20N 47°16' W 002°12'0 0.0
2016-Jun-17 15:14N 47°16' W 002°12'0 0.3
2016-Jun-17 14:33N 47°16' W 002°12'4 3.5
2016-Jun-17 13:27N 47°18' W 002°07'3 2.9
2016-Jun-17 12:33N 47°17' W 002°11'1 1.2
2016-Jun-17 11:32N 47°16' W 002°12'0 0.0
2016-Jun-17 10:26N 47°16' W 002°12'0 0.0
2016-Jun-17 08:32N 47°16' W 002°12'0 0.0
2016-Jun-17 06:14N 47°16' W 002°12'0 0.0
2016-Jun-17 05:26N 47°16' W 002°12'0 0.0
2016-Jun-17 04:32N 47°16' W 002°12'0 0.0
2016-Jun-17 03:32N 47°16' W 002°12'0 0.0
2016-Jun-17 02:29N 47°16' W 002°12'0 0.0
2016-Jun-17 01:32N 47°16' W 002°12'0 0.0
2016-Jun-17 00:32N 47°16' W 002°12'0 0.0
2016-Jun-16 23:32N 47°16' W 002°12'0 0.0
2016-Jun-16 22:32N 47°16' W 002°12'0 0.0
2016-Jun-16 21:32N 47°16' W 002°12'2 2.1
2016-Jun-16 20:33N 47°17' W 002°10'3 3.0
2016-Jun-16 19:32N 47°18' W 002°06'  
Track history (hours):
 
Tides and Currents Weather Stations Pressure Air Temp Water Temp Dewpoint Dewpoint Depression Visibility Wind Speed Wind Dir Waves Ship Positions

Abeille Honfleur 19

Last reported at 2016-Jun-26 18:33 UTC. Time now 2016-Jun-26 19:13 UTC.
Position N 47°16' W 002°12'.

Length 30 m.

Type: Tug. MMSI: 227005280.

Date/timePositionNaut miles runAvg speedWind from/ knotsBaromVisibWave heightAir tempDewpointWater temp
2016-Jun-26 18:33N 47°16' W 002°12'0 0.0
2016-Jun-26 14:33N 47°16' W 002°12'0 0.0
2016-Jun-26 13:33N 47°16' W 002°12'0 0.0
2016-Jun-26 09:33N 47°16' W 002°12'0 0.0
2016-Jun-26 08:33N 47°16' W 002°12'0 0.0
2016-Jun-26 07:21N 47°16' W 002°12'0 0.0
2016-Jun-26 06:33N 47°16' W 002°12'0 0.0
2016-Jun-26 05:33N 47°16' W 002°12'0 0.0
2016-Jun-26 04:33N 47°16' W 002°12'0 0.0
2016-Jun-26 03:33N 47°16' W 002°12'0 0.0
2016-Jun-26 01:27N 47°16' W 002°12'0 0.0
2016-Jun-26 00:33N 47°16' W 002°12'0 0.0
2016-Jun-25 23:33N 47°16' W 002°12'0 0.0
2016-Jun-25 22:30N 47°16' W 002°12'0 0.0
2016-Jun-25 21:33N 47°16' W 002°12'0 0.0
2016-Jun-25 20:33N 47°16' W 002°12'0 0.0
2016-Jun-25 19:33N 47°16' W 002°12'0 0.0
2016-Jun-25 18:27N 47°16' W 002°12'0 0.0
2016-Jun-25 17:15N 47°16' W 002°12'0 0.0
2016-Jun-25 16:06N 47°16' W 002°12'3 4.9
2016-Jun-25 15:33N 47°18' W 002°09'1 0.7
2016-Jun-25 14:32N 47°17' W 002°10'2 1.7
2016-Jun-25 13:31N 47°18' W 002°08'4 0.2
2016-Jun-24 20:25N 47°16' W 002°12'0 0.0
2016-Jun-24 14:19N 47°16' W 002°12'4 5.9
2016-Jun-24 13:33N 47°18' W 002°06'0 0.2
2016-Jun-24 12:32N 47°18' W 002°06'5 1.4
2016-Jun-24 09:13N 47°16' W 002°12'0 0.0
2016-Jun-24 07:31N 47°16' W 002°12'3 1.0
2016-Jun-24 04:33N 47°18' W 002°09'0 0.0
2016-Jun-24 03:33N 47°18' W 002°09'0 0.0
2016-Jun-24 02:33N 47°18' W 002°09'0 0.0
2016-Jun-24 01:33N 47°18' W 002°09'0 0.0
2016-Jun-24 00:33N 47°18' W 002°09'0 0.0
2016-Jun-23 23:33N 47°18' W 002°09'0 0.0
2016-Jun-23 22:33N 47°18' W 002°09'0 0.0
2016-Jun-23 21:33N 47°18' W 002°09'0 0.0
2016-Jun-23 20:30N 47°18' W 002°09'0 0.0
2016-Jun-23 19:33N 47°18' W 002°09'0 0.0
2016-Jun-23 18:33N 47°18' W 002°09'0 0.0
2016-Jun-23 17:27N 47°18' W 002°09'0 0.0
2016-Jun-23 16:33N 47°18' W 002°09'0 0.0
2016-Jun-23 15:33N 47°18' W 002°09'0 0.0
2016-Jun-23 14:33N 47°18' W 002°09'0 0.0
2016-Jun-23 13:33N 47°18' W 002°09'0 0.0
2016-Jun-23 12:33N 47°18' W 002°09'0 0.0
2016-Jun-23 11:30N 47°18' W 002°09'0 0.0
2016-Jun-23 10:30N 47°18' W 002°09'0 0.0
2016-Jun-23 09:27N 47°18' W 002°09'0 0.0
2016-Jun-23 08:33N 47°18' W 002°09'0 0.0
2016-Jun-23 07:33N 47°18' W 002°09'2 1.1
2016-Jun-23 05:31N 47°18' W 002°06'2 1.9
2016-Jun-23 04:34N 47°18' W 002°08'1 1.2
2016-Jun-23 03:32N 47°17' W 002°10'0 0.0
2016-Jun-23 02:32N 47°17' W 002°10'0 0.0
2016-Jun-23 01:32N 47°17' W 002°10'2 1.8
2016-Jun-23 00:31N 47°18' W 002°07'1 0.6
2016-Jun-22 23:33N 47°18' W 002°08'0 0.2
2016-Jun-22 22:33N 47°18' W 002°08'1 1.1
2016-Jun-22 21:28N 47°18' W 002°06'0 0.0
2016-Jun-22 20:28N 47°18' W 002°06'0 0.0
2016-Jun-22 19:31N 47°18' W 002°06'0 0.0
2016-Jun-22 18:28N 47°18' W 002°06'0 0.0
2016-Jun-22 17:31N 47°18' W 002°06'1 0.6
2016-Jun-22 16:33N 47°18' W 002°07'4 3.3
2016-Jun-22 15:20N 47°16' W 002°12'0 0.0
2016-Jun-22 14:20N 47°16' W 002°12'0 0.0
2016-Jun-22 08:20N 47°16' W 002°12'0 0.0
2016-Jun-22 07:32N 47°16' W 002°12'0 0.0
2016-Jun-22 06:29N 47°16' W 002°12'0 0.0
2016-Jun-22 05:23N 47°16' W 002°12'0 0.0
2016-Jun-22 03:29N 47°16' W 002°12'0 0.0
2016-Jun-22 02:26N 47°16' W 002°12'0 0.0
2016-Jun-22 01:29N 47°16' W 002°12'0 0.0
2016-Jun-22 00:32N 47°16' W 002°12'0 0.0
2016-Jun-21 20:32N 47°16' W 002°12'0 0.0
2016-Jun-21 19:32N 47°16' W 002°12'0 0.0
2016-Jun-21 17:14N 47°16' W 002°12'0 0.0
2016-Jun-21 16:29N 47°16' W 002°12'5 5.0
2016-Jun-21 15:30N 47°18' W 002°06'0 0.1
2016-Jun-21 14:31N 47°18' W 002°06'5 0.8
2016-Jun-21 08:29N 47°16' W 002°12'0 0.0
2016-Jun-21 07:17N 47°16' W 002°12'4 1.3
2016-Jun-21 04:33N 47°18' W 002°08'1 1.3
2016-Jun-21 03:33N 47°18' W 002°09'2 2.3
2016-Jun-21 02:31N 47°16' W 002°12'0 0.0
2016-Jun-21 01:31N 47°16' W 002°12'0 0.0
2016-Jun-21 00:31N 47°16' W 002°12'0 0.0
2016-Jun-20 23:22N 47°16' W 002°12'0 0.0
2016-Jun-20 22:31N 47°16' W 002°12'0 0.0
2016-Jun-20 21:19N 47°16' W 002°12'0 0.0
2016-Jun-20 20:25N 47°16' W 002°12'0 0.0
2016-Jun-20 19:25N 47°16' W 002°12'0 0.0
2016-Jun-20 18:31N 47°16' W 002°12'0 0.0
2016-Jun-20 17:19N 47°16' W 002°12'5 6.0
2016-Jun-20 16:33N 47°18' W 002°06'2 1.7
2016-Jun-20 15:33N 47°18' W 002°09'0 0.3
2016-Jun-20 14:32N 47°18' W 002°08'3 2.3
2016-Jun-20 13:07N 47°16' W 002°12'0 0.0
2016-Jun-20 12:31N 47°16' W 002°12'0 0.0
2016-Jun-20 07:04N 47°16' W 002°12'0 0.0
2016-Jun-20 06:31N 47°16' W 002°12'0 0.0
2016-Jun-20 05:25N 47°16' W 002°12'0 0.0
2016-Jun-20 04:19N 47°16' W 002°12'0 0.0
2016-Jun-20 03:10N 47°16' W 002°12'0 0.0
2016-Jun-20 02:16N 47°16' W 002°12'0 0.0
2016-Jun-20 01:31N 47°16' W 002°12'0 0.0
2016-Jun-20 00:28N 47°16' W 002°12'0 0.0
2016-Jun-19 23:04N 47°16' W 002°12'0 0.0
2016-Jun-19 22:25N 47°16' W 002°12'1 0.1
2016-Jun-19 15:33N 47°16' W 002°11'2 2.4
2016-Jun-19 14:34N 47°18' W 002°08'1 1.4
2016-Jun-19 13:33N 47°17' W 002°10'2 1.2
2016-Jun-19 12:05N 47°16' W 002°12'0 0.0
2016-Jun-19 11:32N 47°16' W 002°12'0 0.0
2016-Jun-19 07:23N 47°16' W 002°12'3 3.4
2016-Jun-19 06:32N 47°18' W 002°09'0 0.0
2016-Jun-19 05:32N 47°18' W 002°09'0 0.0
2016-Jun-19 04:32N 47°18' W 002°09'0 0.0
2016-Jun-19 03:32N 47°18' W 002°09'0 0.0
2016-Jun-19 02:32N 47°18' W 002°09'0 0.0
2016-Jun-19 01:32N 47°18' W 002°09'0 0.0
2016-Jun-19 00:32N 47°18' W 002°09'0 0.0
2016-Jun-18 23:32N 47°18' W 002°09'0 0.0
2016-Jun-18 22:32N 47°18' W 002°09'0 0.0
2016-Jun-18 21:32N 47°18' W 002°09'0 0.0
2016-Jun-18 20:29N 47°18' W 002°09'0 0.0
2016-Jun-18 19:32N 47°18' W 002°09'0 0.0
2016-Jun-18 18:32N 47°18' W 002°09'0 0.0
2016-Jun-18 17:32N 47°18' W 002°09'0 0.0
2016-Jun-18 16:32N 47°18' W 002°09'0 0.0
2016-Jun-18 15:32N 47°18' W 002°09'0 0.0
2016-Jun-18 14:32N 47°18' W 002°09'0 0.0
2016-Jun-18 13:32N 47°18' W 002°09'0 0.0
2016-Jun-18 12:29N 47°18' W 002°09'0 0.0
2016-Jun-18 11:32N 47°18' W 002°09'0 0.0
2016-Jun-18 10:32N 47°18' W 002°09'0 0.0
2016-Jun-18 09:32N 47°18' W 002°09'0 0.0
2016-Jun-18 08:32N 47°18' W 002°09'0 0.0
2016-Jun-18 07:33N 47°18' W 002°09'3 1.4
2016-Jun-18 05:33N 47°16' W 002°12'0 0.0
2016-Jun-18 04:27N 47°16' W 002°12'0 0.0
2016-Jun-18 03:33N 47°16' W 002°12'0 0.0
2016-Jun-18 02:27N 47°16' W 002°12'5 5.1
2016-Jun-18 01:31N 47°18' W 002°06'3 2.7
2016-Jun-18 00:33N 47°18' W 002°10'0 0.2
2016-Jun-17 23:32N 47°17' W 002°10'1 0.7
2016-Jun-17 22:33N 47°18' W 002°09'2 2.2
2016-Jun-17 21:32N 47°18' W 002°06'5 4.3
2016-Jun-17 20:26N 47°16' W 002°12'0 0.0
2016-Jun-17 19:29N 47°16' W 002°12'0 0.0
2016-Jun-17 18:32N 47°16' W 002°12'0 0.0
2016-Jun-17 17:29N 47°16' W 002°12'0 0.0
2016-Jun-17 16:20N 47°16' W 002°12'0 0.0
2016-Jun-17 15:14N 47°16' W 002°12'0 0.3
2016-Jun-17 14:33N 47°16' W 002°12'4 3.5
2016-Jun-17 13:27N 47°18' W 002°07'3 2.9
2016-Jun-17 12:33N 47°17' W 002°11'1 1.2
2016-Jun-17 11:32N 47°16' W 002°12'0 0.0
2016-Jun-17 10:26N 47°16' W 002°12'0 0.0
2016-Jun-17 08:32N 47°16' W 002°12'0 0.0
2016-Jun-17 06:14N 47°16' W 002°12'0 0.0
2016-Jun-17 05:26N 47°16' W 002°12'0 0.0
2016-Jun-17 04:32N 47°16' W 002°12'0 0.0
2016-Jun-17 03:32N 47°16' W 002°12'0 0.0
2016-Jun-17 02:29N 47°16' W 002°12'0 0.0
2016-Jun-17 01:32N 47°16' W 002°12'0 0.0
2016-Jun-17 00:32N 47°16' W 002°12'0 0.0
2016-Jun-16 23:32N 47°16' W 002°12'0 0.0
2016-Jun-16 22:32N 47°16' W 002°12'0 0.0
2016-Jun-16 21:32N 47°16' W 002°12'2 2.1
2016-Jun-16 20:33N 47°17' W 002°10'3 3.0
2016-Jun-16 19:32N 47°18' W 002°06'  

Dump ship's entire track history